TimeEST,TemperatureF,Dew PointF,Humidity,Sea Level PressureIn,VisibilityMPH,Wind Direction,Wind SpeedMPH,Gust SpeedMPH,PrecipitationIn,Events,Conditions,WindDirDegrees,DateUTC
12:51 AM,27.0,24.1,89,30.16,5.0,Calm,Calm,-,N/A,,Mostly Cloudy,0,2012-12-28 05:51:00
1:51 AM,26.1,24.1,92,30.16,4.0,Calm,Calm,-,N/A,,Overcast,0,2012-12-28 06:51:00
2:39 AM,24.8,24.8,100,30.16,4.0,Calm,Calm,-,N/A,,Overcast,0,2012-12-28 07:39:00
2:51 AM,26.1,24.1,92,30.19,4.0,Calm,Calm,-,N/A,,Overcast,0,2012-12-28 07:51:00
3:51 AM,26.1,24.1,92,30.19,4.0,Calm,Calm,-,N/A,,Overcast,0,2012-12-28 08:51:00
4:51 AM,27.0,25.0,92,30.17,4.0,Calm,Calm,-,N/A,,Overcast,0,2012-12-28 09:51:00
5:51 AM,27.0,25.0,92,30.17,4.0,ESE,3.5,-,N/A,,Overcast,110,2012-12-28 10:51:00
6:51 AM,28.0,25.0,88,30.17,4.0,SSE,3.5,-,N/A,,Overcast,150,2012-12-28 11:51:00
7:51 AM,27.0,24.1,89,30.15,5.0,East,4.6,-,N/A,,Overcast,100,2012-12-28 12:51:00
8:51 AM,28.0,25.0,88,30.16,4.0,SSE,3.5,-,N/A,,Overcast,160,2012-12-28 13:51:00
9:51 AM,28.9,25.0,85,30.16,5.0,ESE,4.6,-,N/A,,Overcast,120,2012-12-28 14:51:00
10:35 AM,30.2,24.8,80,30.15,5.0,SSE,8.1,-,N/A,,Haze,160,2012-12-28 15:35:00
10:51 AM,30.0,25.0,82,30.19,6.0,South,6.9,-,N/A,,Haze,170,2012-12-28 15:51:00
11:51 AM,32.0,26.1,79,30.17,10.0,Calm,Calm,-,N/A,,Mostly Cloudy,0,2012-12-28 16:51:00
12:51 PM,33.1,25.0,72,30.12,10.0,Calm,Calm,-,N/A,,Mostly Cloudy,0,2012-12-28 17:51:00
1:51 PM,33.1,25.0,72,30.06,10.0,East,6.9,-,N/A,,Mostly Cloudy,100,2012-12-28 18:51:00
2:51 PM,33.1,25.0,72,30.05,10.0,SE,5.8,-,N/A,,Mostly Cloudy,130,2012-12-28 19:51:00
3:51 PM,32.0,25.0,75,30.04,10.0,East,5.8,-,N/A,,Mostly Cloudy,100,2012-12-28 20:51:00
4:51 PM,30.9,25.0,79,30.02,10.0,East,10.4,-,N/A,,Mostly Cloudy,90,2012-12-28 21:51:00
5:04 PM,30.2,24.8,80,29.99,10.0,East,9.2,-,N/A,,Mostly Cloudy,100,2012-12-28 22:04:00
5:31 PM,30.2,24.8,80,29.99,10.0,East,8.1,-,N/A,,Overcast,90,2012-12-28 22:31:00
5:51 PM,30.0,25.0,82,30.02,10.0,East,11.5,-,N/A,,Overcast,100,2012-12-28 22:51:00
6:51 PM,28.9,25.0,85,30.03,10.0,ESE,8.1,-,N/A,,Overcast,120,2012-12-28 23:51:00
7:51 PM,28.4,24.8,86,29.98,10.0,East,5.8,-,N/A,,Overcast,90,2012-12-29 00:51:00
8:04 PM,28.4,24.8,86,29.97,10.0,East,5.8,-,N/A,,Overcast,100,2012-12-29 01:04:00
8:51 PM,28.0,24.1,85,29.97,10.0,East,5.8,-,N/A,,Mostly Cloudy,80,2012-12-29 01:51:00
9:51 PM,30.2,24.8,80,29.90,10.0,East,6.9,-,N/A,,Overcast,90,2012-12-29 02:51:00
10:51 PM,30.0,26.1,85,29.91,10.0,ENE,4.6,-,N/A,,Overcast,60,2012-12-29 03:51:00
11:51 PM,30.0,26.1,85,29.88,10.0,SE,8.1,-,N/A,,Overcast,130,2012-12-29 04:51:00